sensor_id;sensor_type;location;lat;lon;timestamp;P1;durP1;ratioP1;P2;durP2;ratioP2
48552;SDS011;34335;51.566;6.994;2023-02-11T00:00:06;12.23;;;5.78;;
48552;SDS011;34335;51.566;6.994;2023-02-11T00:02:32;19.77;;;7.72;;
48552;SDS011;34335;51.566;6.994;2023-02-11T00:04:58;20.40;;;6.90;;
48552;SDS011;34335;51.566;6.994;2023-02-11T00:07:25;14.20;;;7.07;;
48552;SDS011;34335;51.566;6.994;2023-02-11T00:09:53;16.75;;;5.00;;
48552;SDS011;34335;51.566;6.994;2023-02-11T00:12:18;17.10;;;7.15;;
48552;SDS011;34335;51.566;6.994;2023-02-11T00:14:43;21.80;;;7.22;;
48552;SDS011;34335;51.566;6.994;2023-02-11T00:17:09;15.35;;;6.93;;
48552;SDS011;34335;51.566;6.994;2023-02-11T00:19:34;15.32;;;7.55;;
48552;SDS011;34335;51.566;6.994;2023-02-11T00:21:59;9.17;;;5.97;;
48552;SDS011;34335;51.566;6.994;2023-02-11T00:24:24;9.67;;;5.27;;
48552;SDS011;34335;51.566;6.994;2023-02-11T00:26:50;9.70;;;5.30;;
48552;SDS011;34335;51.566;6.994;2023-02-11T00:29:15;15.80;;;6.00;;
48552;SDS011;34335;51.566;6.994;2023-02-11T00:31:40;12.63;;;4.80;;
48552;SDS011;34335;51.566;6.994;2023-02-11T00:34:05;14.88;;;5.50;;
48552;SDS011;34335;51.566;6.994;2023-02-11T00:36:31;6.68;;;3.42;;
48552;SDS011;34335;51.566;6.994;2023-02-11T00:38:56;14.32;;;5.25;;
48552;SDS011;34335;51.566;6.994;2023-02-11T00:41:23;15.10;;;5.43;;
48552;SDS011;34335;51.566;6.994;2023-02-11T00:43:49;14.73;;;6.63;;
48552;SDS011;34335;51.566;6.994;2023-02-11T00:46:15;15.40;;;5.93;;
48552;SDS011;34335;51.566;6.994;2023-02-11T00:48:41;9.52;;;4.85;;
48552;SDS011;34335;51.566;6.994;2023-02-11T00:51:07;9.05;;;4.32;;
48552;SDS011;34335;51.566;6.994;2023-02-11T00:53:33;8.77;;;2.90;;
48552;SDS011;34335;51.566;6.994;2023-02-11T00:55:58;12.02;;;6.15;;
48552;SDS011;34335;51.566;6.994;2023-02-11T00:58:25;14.05;;;4.93;;
48552;SDS011;34335;51.566;6.994;2023-02-11T01:00:51;6.30;;;3.65;;
48552;SDS011;34335;51.566;6.994;2023-02-11T01:03:17;9.90;;;4.57;;
48552;SDS011;34335;51.566;6.994;2023-02-11T01:05:42;6.23;;;3.47;;
48552;SDS011;34335;51.566;6.994;2023-02-11T01:08:07;18.50;;;5.90;;
48552;SDS011;34335;51.566;6.994;2023-02-11T01:10:33;12.50;;;5.60;;
48552;SDS011;34335;51.566;6.994;2023-02-11T01:12:58;14.63;;;6.47;;
48552;SDS011;34335;51.566;6.994;2023-02-11T01:15:23;5.40;;;3.40;;
48552;SDS011;34335;51.566;6.994;2023-02-11T01:17:49;10.90;;;5.00;;
48552;SDS011;34335;51.566;6.994;2023-02-11T01:20:16;12.48;;;5.30;;
48552;SDS011;34335;51.566;6.994;2023-02-11T01:22:43;11.10;;;5.00;;
48552;SDS011;34335;51.566;6.994;2023-02-11T01:25:09;14.23;;;5.47;;
48552;SDS011;34335;51.566;6.994;2023-02-11T01:27:34;10.57;;;4.45;;
48552;SDS011;34335;51.566;6.994;2023-02-11T01:30:00;8.43;;;4.13;;
48552;SDS011;34335;51.566;6.994;2023-02-11T01:32:26;9.10;;;4.30;;
48552;SDS011;34335;51.566;6.994;2023-02-11T01:34:51;11.40;;;4.85;;
48552;SDS011;34335;51.566;6.994;2023-02-11T01:37:16;7.15;;;4.38;;
48552;SDS011;34335;51.566;6.994;2023-02-11T01:39:42;7.45;;;3.47;;
48552;SDS011;34335;51.566;6.994;2023-02-11T01:42:10;12.30;;;4.47;;
48552;SDS011;34335;51.566;6.994;2023-02-11T01:44:40;11.23;;;5.03;;
48552;SDS011;34335;51.566;6.994;2023-02-11T01:47:06;13.95;;;5.90;;
48552;SDS011;34335;51.566;6.994;2023-02-11T01:49:32;7.88;;;3.22;;
48552;SDS011;34335;51.566;6.994;2023-02-11T01:54:27;4.90;;;2.37;;
48552;SDS011;34335;51.566;6.994;2023-02-11T01:57:15;8.40;;;4.30;;
48552;SDS011;34335;51.566;6.994;2023-02-11T02:00:02;14.18;;;4.10;;
48552;SDS011;34335;51.566;6.994;2023-02-11T02:05:39;11.75;;;5.07;;
48552;SDS011;34335;51.566;6.994;2023-02-11T02:08:29;7.22;;;3.08;;
48552;SDS011;34335;51.566;6.994;2023-02-11T02:10:56;12.73;;;4.43;;
48552;SDS011;34335;51.566;6.994;2023-02-11T02:13:24;4.88;;;2.75;;
48552;SDS011;34335;51.566;6.994;2023-02-11T02:15:52;17.13;;;5.38;;
48552;SDS011;34335;51.566;6.994;2023-02-11T02:23:35;10.82;;;4.97;;
48552;SDS011;34335;51.566;6.994;2023-02-11T02:29:07;11.48;;;4.75;;
48552;SDS011;34335;51.566;6.994;2023-02-11T02:34:29;6.38;;;3.40;;
48552;SDS011;34335;51.566;6.994;2023-02-11T02:37:14;10.75;;;4.68;;
48552;SDS011;34335;51.566;6.994;2023-02-11T02:39:44;9.60;;;4.10;;
48552;SDS011;34335;51.566;6.994;2023-02-11T02:42:11;10.45;;;3.90;;
48552;SDS011;34335;51.566;6.994;2023-02-11T02:44:37;9.80;;;3.85;;
48552;SDS011;34335;51.566;6.994;2023-02-11T02:47:03;10.35;;;3.85;;
48552;SDS011;34335;51.566;6.994;2023-02-11T02:49:28;8.70;;;4.07;;
48552;SDS011;34335;51.566;6.994;2023-02-11T02:52:05;10.83;;;4.90;;
48552;SDS011;34335;51.566;6.994;2023-02-11T02:57:38;12.30;;;4.65;;
48552;SDS011;34335;51.566;6.994;2023-02-11T03:00:31;10.77;;;3.97;;
48552;SDS011;34335;51.566;6.994;2023-02-11T03:05:54;16.65;;;3.85;;
48552;SDS011;34335;51.566;6.994;2023-02-11T03:08:43;9.25;;;4.78;;
48552;SDS011;34335;51.566;6.994;2023-02-11T03:11:13;5.63;;;2.42;;
48552;SDS011;34335;51.566;6.994;2023-02-11T03:13:41;12.15;;;5.80;;
48552;SDS011;34335;51.566;6.994;2023-02-11T03:16:12;14.02;;;5.13;;
48552;SDS011;34335;51.566;6.994;2023-02-11T03:18:41;15.63;;;4.63;;
48552;SDS011;34335;51.566;6.994;2023-02-11T03:21:10;9.23;;;4.20;;
48552;SDS011;34335;51.566;6.994;2023-02-11T03:23:40;7.60;;;4.22;;
48552;SDS011;34335;51.566;6.994;2023-02-11T03:26:11;5.45;;;2.60;;
48552;SDS011;34335;51.566;6.994;2023-02-11T03:28:50;8.68;;;3.80;;
48552;SDS011;34335;51.566;6.994;2023-02-11T03:31:36;10.65;;;3.90;;
48552;SDS011;34335;51.566;6.994;2023-02-11T03:34:05;12.32;;;5.30;;
48552;SDS011;34335;51.566;6.994;2023-02-11T03:39:18;12.40;;;5.25;;
48552;SDS011;34335;51.566;6.994;2023-02-11T03:41:48;11.48;;;6.05;;
48552;SDS011;34335;51.566;6.994;2023-02-11T03:44:14;10.90;;;4.13;;
48552;SDS011;34335;51.566;6.994;2023-02-11T03:46:41;9.07;;;4.82;;
48552;SDS011;34335;51.566;6.994;2023-02-11T03:49:12;6.35;;;2.55;;
48552;SDS011;34335;51.566;6.994;2023-02-11T03:51:41;8.32;;;3.30;;
48552;SDS011;34335;51.566;6.994;2023-02-11T03:54:09;16.45;;;6.05;;
48552;SDS011;34335;51.566;6.994;2023-02-11T03:56:48;8.13;;;4.13;;
48552;SDS011;34335;51.566;6.994;2023-02-11T03:59:17;9.38;;;4.90;;
48552;SDS011;34335;51.566;6.994;2023-02-11T04:01:42;6.78;;;3.33;;
48552;SDS011;34335;51.566;6.994;2023-02-11T04:04:08;8.98;;;3.05;;
48552;SDS011;34335;51.566;6.994;2023-02-11T04:06:33;6.28;;;3.67;;
48552;SDS011;34335;51.566;6.994;2023-02-11T04:08:59;10.90;;;4.93;;
48552;SDS011;34335;51.566;6.994;2023-02-11T04:11:24;9.48;;;3.33;;
48552;SDS011;34335;51.566;6.994;2023-02-11T04:13:49;5.03;;;3.10;;
48552;SDS011;34335;51.566;6.994;2023-02-11T04:16:15;11.48;;;4.30;;
48552;SDS011;34335;51.566;6.994;2023-02-11T04:18:40;5.63;;;3.45;;
48552;SDS011;34335;51.566;6.994;2023-02-11T04:21:05;4.73;;;3.13;;
48552;SDS011;34335;51.566;6.994;2023-02-11T04:23:31;11.13;;;3.75;;
48552;SDS011;34335;51.566;6.994;2023-02-11T04:25:56;9.52;;;4.32;;
48552;SDS011;34335;51.566;6.994;2023-02-11T04:28:21;10.10;;;4.67;;
48552;SDS011;34335;51.566;6.994;2023-02-11T04:30:48;11.10;;;4.32;;
48552;SDS011;34335;51.566;6.994;2023-02-11T04:33:14;8.30;;;3.33;;
48552;SDS011;34335;51.566;6.994;2023-02-11T04:35:39;13.80;;;3.33;;
48552;SDS011;34335;51.566;6.994;2023-02-11T04:38:05;8.18;;;3.75;;
48552;SDS011;34335;51.566;6.994;2023-02-11T04:40:30;8.30;;;4.70;;
48552;SDS011;34335;51.566;6.994;2023-02-11T04:42:55;7.68;;;4.50;;
48552;SDS011;34335;51.566;6.994;2023-02-11T04:45:20;8.18;;;3.50;;
48552;SDS011;34335;51.566;6.994;2023-02-11T04:47:46;14.33;;;4.50;;
48552;SDS011;34335;51.566;6.994;2023-02-11T04:50:11;10.73;;;4.57;;
48552;SDS011;34335;51.566;6.994;2023-02-11T04:52:36;13.25;;;4.15;;
48552;SDS011;34335;51.566;6.994;2023-02-11T04:55:02;7.78;;;4.20;;
48552;SDS011;34335;51.566;6.994;2023-02-11T04:57:27;12.77;;;4.80;;
48552;SDS011;34335;51.566;6.994;2023-02-11T04:59:52;10.90;;;4.20;;
48552;SDS011;34335;51.566;6.994;2023-02-11T05:02:17;10.25;;;5.65;;
48552;SDS011;34335;51.566;6.994;2023-02-11T05:04:43;8.88;;;4.82;;
48552;SDS011;34335;51.566;6.994;2023-02-11T05:07:08;11.15;;;4.82;;
48552;SDS011;34335;51.566;6.994;2023-02-11T05:09:33;9.63;;;3.95;;
48552;SDS011;34335;51.566;6.994;2023-02-11T05:11:59;10.90;;;4.97;;
48552;SDS011;34335;51.566;6.994;2023-02-11T05:14:24;8.53;;;4.40;;
48552;SDS011;34335;51.566;6.994;2023-02-11T05:16:49;8.70;;;3.50;;
48552;SDS011;34335;51.566;6.994;2023-02-11T05:19:14;10.43;;;6.33;;
48552;SDS011;34335;51.566;6.994;2023-02-11T05:21:39;13.73;;;5.97;;
48552;SDS011;34335;51.566;6.994;2023-02-11T05:24:06;11.90;;;5.50;;
48552;SDS011;34335;51.566;6.994;2023-02-11T05:26:31;7.75;;;3.85;;
48552;SDS011;34335;51.566;6.994;2023-02-11T05:28:57;9.48;;;4.53;;
48552;SDS011;34335;51.566;6.994;2023-02-11T05:31:22;10.87;;;5.37;;
48552;SDS011;34335;51.566;6.994;2023-02-11T05:33:47;12.13;;;4.57;;
48552;SDS011;34335;51.566;6.994;2023-02-11T05:36:13;12.38;;;5.97;;
48552;SDS011;34335;51.566;6.994;2023-02-11T05:38:38;16.83;;;4.93;;
48552;SDS011;34335;51.566;6.994;2023-02-11T05:41:04;9.20;;;3.90;;
48552;SDS011;34335;51.566;6.994;2023-02-11T05:43:30;8.63;;;4.55;;
48552;SDS011;34335;51.566;6.994;2023-02-11T05:45:56;11.32;;;4.97;;
48552;SDS011;34335;51.566;6.994;2023-02-11T05:48:21;11.75;;;6.18;;
48552;SDS011;34335;51.566;6.994;2023-02-11T05:50:47;9.35;;;4.38;;
48552;SDS011;34335;51.566;6.994;2023-02-11T05:53:12;12.02;;;5.22;;
48552;SDS011;34335;51.566;6.994;2023-02-11T05:55:38;6.93;;;3.70;;
48552;SDS011;34335;51.566;6.994;2023-02-11T05:58:05;17.55;;;5.50;;
48552;SDS011;34335;51.566;6.994;2023-02-11T06:00:31;9.68;;;5.22;;
48552;SDS011;34335;51.566;6.994;2023-02-11T06:02:58;8.73;;;4.97;;
48552;SDS011;34335;51.566;6.994;2023-02-11T06:05:23;11.40;;;4.88;;
48552;SDS011;34335;51.566;6.994;2023-02-11T06:07:48;12.25;;;5.90;;
48552;SDS011;34335;51.566;6.994;2023-02-11T06:10:13;12.33;;;6.10;;
48552;SDS011;34335;51.566;6.994;2023-02-11T06:12:39;13.60;;;5.68;;
48552;SDS011;34335;51.566;6.994;2023-02-11T06:15:05;11.23;;;5.32;;
48552;SDS011;34335;51.566;6.994;2023-02-11T06:17:30;12.68;;;6.38;;
48552;SDS011;34335;51.566;6.994;2023-02-11T06:19:57;13.77;;;7.15;;
48552;SDS011;34335;51.566;6.994;2023-02-11T06:22:26;8.88;;;4.97;;
48552;SDS011;34335;51.566;6.994;2023-02-11T06:24:52;10.23;;;5.40;;
48552;SDS011;34335;51.566;6.994;2023-02-11T06:27:18;11.88;;;5.80;;
48552;SDS011;34335;51.566;6.994;2023-02-11T06:29:43;8.90;;;5.07;;
48552;SDS011;34335;51.566;6.994;2023-02-11T06:32:09;17.73;;;5.30;;
48552;SDS011;34335;51.566;6.994;2023-02-11T06:34:35;8.85;;;5.22;;
48552;SDS011;34335;51.566;6.994;2023-02-11T06:37:00;13.10;;;5.50;;
48552;SDS011;34335;51.566;6.994;2023-02-11T06:39:25;11.70;;;6.00;;
48552;SDS011;34335;51.566;6.994;2023-02-11T06:41:51;13.80;;;7.03;;
48552;SDS011;34335;51.566;6.994;2023-02-11T06:44:16;11.30;;;5.55;;
48552;SDS011;34335;51.566;6.994;2023-02-11T06:46:41;12.10;;;6.10;;
48552;SDS011;34335;51.566;6.994;2023-02-11T06:49:06;19.87;;;7.03;;
48552;SDS011;34335;51.566;6.994;2023-02-11T06:51:32;10.60;;;4.43;;
48552;SDS011;34335;51.566;6.994;2023-02-11T06:53:57;14.00;;;5.83;;
48552;SDS011;34335;51.566;6.994;2023-02-11T06:56:22;12.60;;;4.88;;
48552;SDS011;34335;51.566;6.994;2023-02-11T06:58:51;16.85;;;6.47;;
48552;SDS011;34335;51.566;6.994;2023-02-11T07:01:19;15.55;;;6.75;;
48552;SDS011;34335;51.566;6.994;2023-02-11T07:03:45;12.13;;;4.55;;
48552;SDS011;34335;51.566;6.994;2023-02-11T07:06:14;18.10;;;7.72;;
48552;SDS011;34335;51.566;6.994;2023-02-11T07:08:42;12.38;;;6.43;;
48552;SDS011;34335;51.566;6.994;2023-02-11T07:11:10;9.80;;;4.28;;
48552;SDS011;34335;51.566;6.994;2023-02-11T07:13:41;13.70;;;6.38;;
48552;SDS011;34335;51.566;6.994;2023-02-11T07:16:07;16.38;;;5.35;;
48552;SDS011;34335;51.566;6.994;2023-02-11T07:18:34;15.52;;;7.63;;
48552;SDS011;34335;51.566;6.994;2023-02-11T07:21:03;13.90;;;5.40;;
48552;SDS011;34335;51.566;6.994;2023-02-11T07:23:29;13.85;;;7.05;;
48552;SDS011;34335;51.566;6.994;2023-02-11T07:25:55;22.40;;;6.30;;
48552;SDS011;34335;51.566;6.994;2023-02-11T07:28:21;8.77;;;2.95;;
48552;SDS011;34335;51.566;6.994;2023-02-11T07:30:46;18.70;;;6.63;;
48552;SDS011;34335;51.566;6.994;2023-02-11T07:33:11;17.80;;;7.13;;
48552;SDS011;34335;51.566;6.994;2023-02-11T07:35:36;14.03;;;6.43;;
48552;SDS011;34335;51.566;6.994;2023-02-11T07:38:01;16.03;;;7.63;;
48552;SDS011;34335;51.566;6.994;2023-02-11T07:40:27;10.82;;;5.55;;
48552;SDS011;34335;51.566;6.994;2023-02-11T07:42:52;11.48;;;4.75;;
48552;SDS011;34335;51.566;6.994;2023-02-11T07:45:18;21.97;;;6.30;;
48552;SDS011;34335;51.566;6.994;2023-02-11T07:47:43;11.88;;;5.18;;
48552;SDS011;34335;51.566;6.994;2023-02-11T07:52:14;15.20;;;7.82;;
48552;SDS011;34335;51.566;6.994;2023-02-11T07:55:22;8.90;;;4.30;;
48552;SDS011;34335;51.566;6.994;2023-02-11T07:57:47;15.93;;;5.85;;
48552;SDS011;34335;51.566;6.994;2023-02-11T08:00:13;13.15;;;6.70;;
48552;SDS011;34335;51.566;6.994;2023-02-11T08:02:38;15.10;;;6.50;;
48552;SDS011;34335;51.566;6.994;2023-02-11T08:05:04;22.23;;;6.47;;
48552;SDS011;34335;51.566;6.994;2023-02-11T08:07:29;14.48;;;6.22;;
48552;SDS011;34335;51.566;6.994;2023-02-11T08:09:54;19.45;;;6.97;;
48552;SDS011;34335;51.566;6.994;2023-02-11T08:12:20;11.53;;;5.63;;
48552;SDS011;34335;51.566;6.994;2023-02-11T08:14:45;10.38;;;5.85;;
48552;SDS011;34335;51.566;6.994;2023-02-11T08:17:10;13.02;;;5.82;;
48552;SDS011;34335;51.566;6.994;2023-02-11T08:19:36;11.33;;;5.33;;
48552;SDS011;34335;51.566;6.994;2023-02-11T08:22:02;10.18;;;4.82;;
48552;SDS011;34335;51.566;6.994;2023-02-11T08:24:28;20.25;;;5.15;;
48552;SDS011;34335;51.566;6.994;2023-02-11T08:26:53;14.77;;;6.15;;
48552;SDS011;34335;51.566;6.994;2023-02-11T08:29:19;15.63;;;4.50;;
48552;SDS011;34335;51.566;6.994;2023-02-11T08:31:45;14.80;;;5.32;;
48552;SDS011;34335;51.566;6.994;2023-02-11T08:34:11;17.83;;;6.07;;
48552;SDS011;34335;51.566;6.994;2023-02-11T08:36:40;19.20;;;5.82;;
48552;SDS011;34335;51.566;6.994;2023-02-11T08:39:07;14.18;;;6.25;;
48552;SDS011;34335;51.566;6.994;2023-02-11T08:41:36;16.23;;;6.45;;
48552;SDS011;34335;51.566;6.994;2023-02-11T08:44:02;7.90;;;4.13;;
48552;SDS011;34335;51.566;6.994;2023-02-11T08:46:28;16.38;;;7.25;;
48552;SDS011;34335;51.566;6.994;2023-02-11T08:48:53;13.90;;;6.28;;
48552;SDS011;34335;51.566;6.994;2023-02-11T08:51:21;21.50;;;8.00;;
48552;SDS011;34335;51.566;6.994;2023-02-11T08:53:48;12.15;;;5.68;;
48552;SDS011;34335;51.566;6.994;2023-02-11T08:56:15;16.38;;;6.22;;
48552;SDS011;34335;51.566;6.994;2023-02-11T08:58:41;18.40;;;7.10;;
48552;SDS011;34335;51.566;6.994;2023-02-11T09:01:14;14.98;;;6.65;;
48552;SDS011;34335;51.566;6.994;2023-02-11T09:03:41;24.25;;;8.27;;
48552;SDS011;34335;51.566;6.994;2023-02-11T09:06:07;19.98;;;6.88;;
48552;SDS011;34335;51.566;6.994;2023-02-11T09:08:37;11.95;;;5.75;;
48552;SDS011;34335;51.566;6.994;2023-02-11T09:11:05;33.13;;;8.65;;
48552;SDS011;34335;51.566;6.994;2023-02-11T09:13:30;14.02;;;7.30;;
48552;SDS011;34335;51.566;6.994;2023-02-11T09:15:57;16.50;;;7.75;;
48552;SDS011;34335;51.566;6.994;2023-02-11T09:18:23;15.18;;;6.82;;
48552;SDS011;34335;51.566;6.994;2023-02-11T09:20:49;13.32;;;7.18;;
48552;SDS011;34335;51.566;6.994;2023-02-11T09:23:14;14.93;;;6.63;;
48552;SDS011;34335;51.566;6.994;2023-02-11T09:25:40;17.88;;;7.68;;
48552;SDS011;34335;51.566;6.994;2023-02-11T09:28:06;21.73;;;7.53;;
48552;SDS011;34335;51.566;6.994;2023-02-11T09:30:32;17.25;;;8.80;;
48552;SDS011;34335;51.566;6.994;2023-02-11T09:32:59;19.20;;;7.85;;
48552;SDS011;34335;51.566;6.994;2023-02-11T09:35:26;20.08;;;7.88;;
48552;SDS011;34335;51.566;6.994;2023-02-11T09:37:51;19.10;;;7.57;;
48552;SDS011;34335;51.566;6.994;2023-02-11T09:40:17;15.10;;;7.17;;
48552;SDS011;34335;51.566;6.994;2023-02-11T09:42:50;14.10;;;8.35;;
48552;SDS011;34335;51.566;6.994;2023-02-11T09:45:24;21.77;;;7.85;;
48552;SDS011;34335;51.566;6.994;2023-02-11T09:47:53;12.57;;;6.38;;
48552;SDS011;34335;51.566;6.994;2023-02-11T09:50:33;21.40;;;8.70;;
48552;SDS011;34335;51.566;6.994;2023-02-11T09:55:37;20.20;;;7.32;;
48552;SDS011;34335;51.566;6.994;2023-02-11T09:58:18;16.20;;;6.90;;
48552;SDS011;34335;51.566;6.994;2023-02-11T10:00:49;14.38;;;7.70;;
48552;SDS011;34335;51.566;6.994;2023-02-11T10:19:48;20.08;;;9.07;;
48552;SDS011;34335;51.566;6.994;2023-02-11T10:22:20;23.33;;;9.32;;
48552;SDS011;34335;51.566;6.994;2023-02-11T10:24:56;15.43;;;7.75;;
48552;SDS011;34335;51.566;6.994;2023-02-11T10:27:30;13.57;;;6.95;;
48552;SDS011;34335;51.566;6.994;2023-02-11T10:35:15;15.38;;;7.22;;
48552;SDS011;34335;51.566;6.994;2023-02-11T10:37:43;18.77;;;6.85;;
48552;SDS011;34335;51.566;6.994;2023-02-11T10:40:16;18.85;;;7.15;;
48552;SDS011;34335;51.566;6.994;2023-02-11T10:42:50;28.25;;;10.60;;
48552;SDS011;34335;51.566;6.994;2023-02-11T10:45:21;16.08;;;7.53;;
48552;SDS011;34335;51.566;6.994;2023-02-11T10:47:51;16.95;;;7.70;;
48552;SDS011;34335;51.566;6.994;2023-02-11T10:50:19;18.50;;;7.72;;
48552;SDS011;34335;51.566;6.994;2023-02-11T10:52:47;20.02;;;6.78;;
48552;SDS011;34335;51.566;6.994;2023-02-11T10:55:17;22.33;;;8.18;;
48552;SDS011;34335;51.566;6.994;2023-02-11T11:02:56;17.90;;;6.93;;
48552;SDS011;34335;51.566;6.994;2023-02-11T11:05:28;19.85;;;10.15;;
48552;SDS011;34335;51.566;6.994;2023-02-11T11:08:03;16.48;;;9.40;;
48552;SDS011;34335;51.566;6.994;2023-02-11T11:10:37;28.65;;;9.75;;
48552;SDS011;34335;51.566;6.994;2023-02-11T11:18:37;17.65;;;7.55;;
48552;SDS011;34335;51.566;6.994;2023-02-11T11:21:05;17.67;;;7.63;;
48552;SDS011;34335;51.566;6.994;2023-02-11T11:23:36;10.70;;;5.10;;
48552;SDS011;34335;51.566;6.994;2023-02-11T11:26:09;22.30;;;7.63;;
48552;SDS011;34335;51.566;6.994;2023-02-11T11:28:38;17.38;;;7.00;;
48552;SDS011;34335;51.566;6.994;2023-02-11T11:31:13;20.67;;;8.07;;
48552;SDS011;34335;51.566;6.994;2023-02-11T11:33:43;18.45;;;8.50;;
48552;SDS011;34335;51.566;6.994;2023-02-11T11:36:11;10.00;;;4.00;;
48552;SDS011;34335;51.566;6.994;2023-02-11T11:38:44;20.08;;;8.27;;
48552;SDS011;34335;51.566;6.994;2023-02-11T11:41:19;23.50;;;5.95;;
48552;SDS011;34335;51.566;6.994;2023-02-11T11:44:33;22.65;;;8.18;;
48552;SDS011;34335;51.566;6.994;2023-02-11T11:46:47;15.52;;;5.47;;
48552;SDS011;34335;51.566;6.994;2023-02-11T11:49:22;15.52;;;7.30;;
48552;SDS011;34335;51.566;6.994;2023-02-11T11:51:55;19.02;;;6.30;;
48552;SDS011;34335;51.566;6.994;2023-02-11T11:54:39;15.38;;;6.78;;
48552;SDS011;34335;51.566;6.994;2023-02-11T11:57:14;25.45;;;9.30;;
48552;SDS011;34335;51.566;6.994;2023-02-11T11:59:45;15.30;;;7.55;;
48552;SDS011;34335;51.566;6.994;2023-02-11T12:05:08;24.67;;;7.60;;
48552;SDS011;34335;51.566;6.994;2023-02-11T12:08:02;18.77;;;7.90;;
48552;SDS011;34335;51.566;6.994;2023-02-11T12:13:15;15.80;;;7.85;;
48552;SDS011;34335;51.566;6.994;2023-02-11T12:16:09;19.63;;;9.25;;
48552;SDS011;34335;51.566;6.994;2023-02-11T12:24:08;22.08;;;8.98;;
48552;SDS011;34335;51.566;6.994;2023-02-11T12:27:03;17.02;;;6.97;;
48552;SDS011;34335;51.566;6.994;2023-02-11T12:29:51;15.88;;;6.72;;
48552;SDS011;34335;51.566;6.994;2023-02-11T12:32:26;21.95;;;7.05;;
48552;SDS011;34335;51.566;6.994;2023-02-11T12:37:48;17.40;;;7.97;;
48552;SDS011;34335;51.566;6.994;2023-02-11T12:40:43;12.70;;;6.38;;
48552;SDS011;34335;51.566;6.994;2023-02-11T12:45:59;15.23;;;5.97;;
48552;SDS011;34335;51.566;6.994;2023-02-11T12:54:30;25.10;;;7.82;;
48552;SDS011;34335;51.566;6.994;2023-02-11T13:07:36;19.55;;;9.05;;
48552;SDS011;34335;51.566;6.994;2023-02-11T13:12:37;18.92;;;7.97;;
48552;SDS011;34335;51.566;6.994;2023-02-11T13:15:24;17.95;;;7.07;;
48552;SDS011;34335;51.566;6.994;2023-02-11T13:17:55;21.33;;;9.25;;
48552;SDS011;34335;51.566;6.994;2023-02-11T13:26:11;21.10;;;8.88;;
48552;SDS011;34335;51.566;6.994;2023-02-11T13:28:50;26.25;;;8.43;;
48552;SDS011;34335;51.566;6.994;2023-02-11T13:31:25;27.80;;;9.30;;
48552;SDS011;34335;51.566;6.994;2023-02-11T13:33:52;20.55;;;7.50;;
48552;SDS011;34335;51.566;6.994;2023-02-11T13:36:18;18.70;;;8.52;;
48552;SDS011;34335;51.566;6.994;2023-02-11T13:38:53;22.40;;;9.82;;
48552;SDS011;34335;51.566;6.994;2023-02-11T13:46:54;17.60;;;7.63;;
48552;SDS011;34335;51.566;6.994;2023-02-11T13:49:25;23.27;;;8.85;;
48552;SDS011;34335;51.566;6.994;2023-02-11T13:51:54;17.10;;;8.32;;
48552;SDS011;34335;51.566;6.994;2023-02-11T13:54:25;21.95;;;10.57;;
48552;SDS011;34335;51.566;6.994;2023-02-11T13:59:46;18.13;;;7.68;;
48552;SDS011;34335;51.566;6.994;2023-02-11T14:02:29;26.55;;;8.35;;
48552;SDS011;34335;51.566;6.994;2023-02-11T14:05:29;26.05;;;7.63;;
48552;SDS011;34335;51.566;6.994;2023-02-11T14:08:15;20.67;;;8.80;;
48552;SDS011;34335;51.566;6.994;2023-02-11T14:11:05;11.02;;;6.68;;
48552;SDS011;34335;51.566;6.994;2023-02-11T14:16:16;20.63;;;10.47;;
48552;SDS011;34335;51.566;6.994;2023-02-11T14:21:16;19.37;;;8.93;;
48552;SDS011;34335;51.566;6.994;2023-02-11T14:29:23;21.70;;;8.18;;
48552;SDS011;34335;51.566;6.994;2023-02-11T14:37:21;22.63;;;8.10;;
48552;SDS011;34335;51.566;6.994;2023-02-11T14:39:59;13.82;;;6.55;;
48552;SDS011;34335;51.566;6.994;2023-02-11T14:42:27;20.60;;;9.00;;
48552;SDS011;34335;51.566;6.994;2023-02-11T14:44:55;16.77;;;5.90;;
48552;SDS011;34335;51.566;6.994;2023-02-11T14:47:39;15.95;;;7.00;;
48552;SDS011;34335;51.566;6.994;2023-02-11T14:50:13;15.43;;;8.15;;
48552;SDS011;34335;51.566;6.994;2023-02-11T14:52:43;13.65;;;6.90;;
48552;SDS011;34335;51.566;6.994;2023-02-11T14:58:03;14.45;;;6.45;;
48552;SDS011;34335;51.566;6.994;2023-02-11T15:00:50;14.35;;;6.50;;
48552;SDS011;34335;51.566;6.994;2023-02-11T15:06:05;15.32;;;7.75;;
48552;SDS011;34335;51.566;6.994;2023-02-11T15:08:47;25.00;;;9.05;;
48552;SDS011;34335;51.566;6.994;2023-02-11T15:11:16;15.75;;;6.65;;
48552;SDS011;34335;51.566;6.994;2023-02-11T15:13:44;15.50;;;6.13;;
48552;SDS011;34335;51.566;6.994;2023-02-11T15:16:14;17.30;;;7.07;;
48552;SDS011;34335;51.566;6.994;2023-02-11T15:18:44;14.30;;;6.30;;
48552;SDS011;34335;51.566;6.994;2023-02-11T15:21:12;23.60;;;7.15;;
48552;SDS011;34335;51.566;6.994;2023-02-11T15:24:02;18.75;;;7.25;;
48552;SDS011;34335;51.566;6.994;2023-02-11T15:26:30;15.18;;;5.10;;
48552;SDS011;34335;51.566;6.994;2023-02-11T15:28:57;17.45;;;7.15;;
48552;SDS011;34335;51.566;6.994;2023-02-11T15:31:23;16.17;;;6.63;;
48552;SDS011;34335;51.566;6.994;2023-02-11T15:33:50;16.88;;;7.55;;
48552;SDS011;34335;51.566;6.994;2023-02-11T15:36:17;11.77;;;6.78;;
48552;SDS011;34335;51.566;6.994;2023-02-11T15:38:45;16.58;;;6.72;;
48552;SDS011;34335;51.566;6.994;2023-02-11T15:41:53;13.65;;;6.57;;
48552;SDS011;34335;51.566;6.994;2023-02-11T15:44:27;17.30;;;6.77;;
48552;SDS011;34335;51.566;6.994;2023-02-11T15:46:54;21.27;;;7.13;;
48552;SDS011;34335;51.566;6.994;2023-02-11T15:49:19;14.57;;;7.03;;
48552;SDS011;34335;51.566;6.994;2023-02-11T15:51:47;17.77;;;6.07;;
48552;SDS011;34335;51.566;6.994;2023-02-11T15:54:20;19.08;;;7.68;;
48552;SDS011;34335;51.566;6.994;2023-02-11T15:56:48;16.67;;;7.32;;
48552;SDS011;34335;51.566;6.994;2023-02-11T15:59:22;14.20;;;6.65;;
48552;SDS011;34335;51.566;6.994;2023-02-11T16:02:19;13.75;;;6.85;;
48552;SDS011;34335;51.566;6.994;2023-02-11T16:04:59;16.85;;;7.07;;
48552;SDS011;34335;51.566;6.994;2023-02-11T16:07:45;16.35;;;7.47;;
48552;SDS011;34335;51.566;6.994;2023-02-11T16:10:51;12.63;;;6.22;;
48552;SDS011;34335;51.566;6.994;2023-02-11T16:13:18;15.20;;;6.85;;
48552;SDS011;34335;51.566;6.994;2023-02-11T16:15:48;19.75;;;7.88;;
48552;SDS011;34335;51.566;6.994;2023-02-11T16:18:31;17.35;;;6.68;;
48552;SDS011;34335;51.566;6.994;2023-02-11T16:20:57;12.20;;;6.28;;
48552;SDS011;34335;51.566;6.994;2023-02-11T16:23:28;14.50;;;6.80;;
48552;SDS011;34335;51.566;6.994;2023-02-11T16:26:03;16.27;;;6.63;;
48552;SDS011;34335;51.566;6.994;2023-02-11T16:28:52;25.55;;;8.65;;
48552;SDS011;34335;51.566;6.994;2023-02-11T16:31:31;16.20;;;6.87;;
48552;SDS011;34335;51.566;6.994;2023-02-11T16:34:00;20.65;;;8.80;;
48552;SDS011;34335;51.566;6.994;2023-02-11T16:36:26;19.93;;;8.13;;
48552;SDS011;34335;51.566;6.994;2023-02-11T16:38:51;17.92;;;7.85;;
48552;SDS011;34335;51.566;6.994;2023-02-11T16:41:16;19.47;;;8.07;;
48552;SDS011;34335;51.566;6.994;2023-02-11T16:43:41;16.40;;;8.07;;
48552;SDS011;34335;51.566;6.994;2023-02-11T16:46:07;28.13;;;9.43;;
48552;SDS011;34335;51.566;6.994;2023-02-11T16:48:33;20.55;;;8.02;;
48552;SDS011;34335;51.566;6.994;2023-02-11T16:50:58;22.60;;;9.32;;
48552;SDS011;34335;51.566;6.994;2023-02-11T16:53:24;20.80;;;8.18;;
48552;SDS011;34335;51.566;6.994;2023-02-11T16:55:49;17.83;;;8.30;;
48552;SDS011;34335;51.566;6.994;2023-02-11T16:58:16;26.65;;;11.30;;
48552;SDS011;34335;51.566;6.994;2023-02-11T17:00:42;18.30;;;9.50;;
48552;SDS011;34335;51.566;6.994;2023-02-11T17:03:09;20.20;;;6.85;;